Date,TemperatureHighF,TemperatureAvgF,TemperatureLowF,DewpointHighF,DewpointAvgF,DewpointLowF,HumidityHigh,HumidityAvg,HumidityLow,PressureMaxIn,PressureMinIn,WindSpeedMaxMPH,WindSpeedAvgMPH,GustSpeedMaxMPH,PrecipitationSumIn
2014-1-1,32.9,25.0,21.0,27.7,23.1,18.9,98,93,80,29.71,29.47,13,3,19,0.00
2014-1-2,43.3,19.1,7.0,43.1,17.7,-9.7,99,96,10,29.60,29.25,27,10,113,0.00
2014-1-3,26.8,7.3,-5.8,15.9,-0.3,-27.3,91,72,48,29.85,29.59,29,5,56,0.00
2014-1-4,44.2,22.7,8.6,34.0,15.0,2.7,81,72,63,29.65,29.43,34,8,62,0.00
2014-1-5,46.0,33.5,24.3,38.2,29.8,-15.1,99,87,14,29.47,28.85,14,2,52,0.87
2014-1-6,24.3,1.0,-11.9,24.0,-3.6,-18.4,99,80,59,29.66,28.95,31,5,100,0.00
2014-1-7,9.0,-1.1,-11.2,2.9,-7.7,-16.5,83,73,58,29.78,29.65,17,9,29,0.02
2014-1-8,44.8,16.3,9.0,20.8,12.3,3.0,99,84,67,29.88,29.75,13,5,18,0.00
2014-1-9,42.6,22.6,-38.0,37.5,20.3,-41.5,99,91,66,29.93,29.68,9,2,52,0.00
2014-1-10,45.7,36.6,20.1,45.4,36.3,18.8,99,99,99,29.68,29.14,11,5,56,0.19
2014-1-11,48.2,42.6,34.0,47.9,42.0,32.1,99,98,84,29.16,28.84,17,8,30,0.31
2014-1-12,41.2,35.1,32.0,35.8,33.4,31.0,99,94,77,29.44,29.15,15,6,23,0.00
2014-1-13,48.7,43.1,37.0,46.9,39.2,33.2,99,86,71,29.27,29.09,15,7,27,0.06
2014-1-14,46.2,37.9,30.6,41.1,33.6,25.4,99,85,60,29.26,29.12,16,4,27,0.00
2014-1-15,31.5,26.2,20.5,26.4,19.3,14.9,87,75,61,29.46,29.24,16,6,29,0.00
2014-1-16,28.6,22.9,17.2,28.3,20.9,13.9,99,92,78,29.43,29.14,20,8,30,0.00
2014-1-17,33.4,23.0,5.0,33.2,21.8,-21.1,99,95,10,29.42,29.13,24,2,19,0.02
2014-1-18,21.4,13.1,0.5,19.0,10.9,-0.5,99,91,73,29.42,29.18,13,3,19,0.00
2014-1-19,31.8,24.7,15.3,26.3,21.2,15.1,99,87,70,29.28,29.07,18,7,30,0.00
2014-1-20,37.9,31.6,25.0,33.4,28.2,24.0,99,87,77,29.34,29.02,17,4,24,0.00
2014-1-21,26.6,11.2,1.8,26.4,8.6,-2.3,99,89,71,29.56,29.28,21,8,28,0.00
2014-1-22,10.4,4.1,-7.1,10.0,-1.0,-8.8,98,80,58,29.55,29.37,13,3,19,0.00
2014-1-23,25.9,6.2,-3.8,11.3,-4.9,-40.2,99,69,10,29.92,29.37,54,7,109,0.00
2014-1-24,51.1,4.9,-12.8,42.0,-2.3,-53.5,92,75,10,29.91,29.16,24,10,73,0.14
2014-1-25,36.0,19.5,7.2,35.5,16.5,1.6,99,89,63,29.24,28.80,22,10,36,0.00
2014-1-26,82.0,18.6,1.9,32.5,12.4,-35.9,99,81,10,29.25,28.88,37,7,106,0.00
2014-1-27,40.5,9.5,-9.8,33.2,1.6,-17.9,99,70,52,29.76,28.87,24,7,40,0.19
2014-1-28,6.3,-9.1,-17.7,-6.3,-15.2,-57.7,85,75,10,29.83,29.67,103,17,103,0.00
2014-1-29,52.3,6.2,-8.1,43.6,-3.1,-13.5,81,66,45,29.68,29.63,29,6,45,0.00
2014-1-30,36.3,18.0,5.5,24.6,6.7,-21.3,76,61,10,29.65,29.28,17,7,38,1.24
2014-1-31,34.9,30.1,27.5,34.5,23.6,-18.2,99,79,10,29.56,29.36,14,3,22,0.00
2014-2-1,43.5,36.3,29.3,39.5,33.4,-12.0,99,90,10,29.53,29.25,11,3,110,0.31
2014-2-2,38.1,28.0,23.4,37.9,27.5,-24.9,99,98,10,29.63,29.34,10,1,13,0.19
2014-2-3,46.4,22.1,10.6,42.7,17.4,4.6,99,83,57,29.77,29.56,10,1,14,0.00
2014-2-4,32.2,19.9,10.4,22.8,16.4,-34.9,99,89,10,29.81,29.41,11,3,102,0.02
2014-2-5,40.6,23.1,16.7,29.2,22.0,-24.1,99,96,49,29.74,29.11,149,3,17,0.00
2014-2-6,25.2,12.6,-0.4,17.5,8.4,-5.3,99,84,66,29.81,29.73,0,0,0,0.00
2014-2-7,18.5,3.9,-6.9,3.5,-3.2,-9.8,88,73,48,29.83,29.75,9,1,13,0.04
2014-2-8,24.4,10.9,-1.3,17.8,4.9,-3.4,99,78,44,29.76,29.55,7,1,10,0.00
2014-2-9,34.9,20.6,12.7,26.4,18.4,8.4,99,91,60,29.60,29.43,32,3,32,0.00
2014-2-10,33.6,12.2,-0.6,15.1,5.6,-38.2,98,78,40,29.78,29.60,27,1,27,0.00
2014-2-11,23.2,3.3,-11.9,8.8,-2.8,-14.3,91,77,47,29.88,29.76,9,1,14,0.00
2014-2-12,37.8,9.8,-1.1,13.2,-3.2,-34.8,83,65,10,29.83,29.44,24,3,56,0.00
2014-2-13,45.5,27.5,22.3,18.9,-3.2,-25.9,76,34,10,29.45,28.99,24,12,13,0.00
2014-2-14,41.0,25.4,21.4,27.1,20.9,-23.0,99,83,65,29.18,28.91,17,5,106,0.00
2014-2-15,30.9,20.4,8.8,21.2,14.1,-22.6,99,78,21,29.49,29.17,14,4,21,0.62
2014-2-16,30.6,18.9,8.2,25.3,16.9,7.2,99,92,73,29.73,29.35,12,3,20,0.00
2014-2-17,33.4,20.3,2.1,33.2,17.4,2.0,99,89,62,29.75,29.07,14,4,35,0.00
2014-2-18,45.7,37.2,28.9,34.9,31.3,27.7,99,81,61,29.49,29.16,20,6,37,0.02
2014-2-19,49.3,39.4,17.4,39.3,31.8,-29.7,99,77,10,29.51,29.06,11,4,66,0.08
2014-2-20,57.2,41.9,26.2,55.5,40.1,-14.7,99,94,10,29.49,28.92,25,5,30,0.12
2014-2-21,55.2,40.1,34.5,55.0,31.9,-22.5,99,74,52,29.34,28.92,24,10,40,0.45
2014-2-22,55.6,41.9,34.2,35.3,30.6,-2.2,99,66,43,29.45,29.25,16,6,24,0.00
2014-2-23,40.5,32.3,23.7,34.6,27.1,16.9,99,82,59,29.55,29.42,11,3,17,0.00
2014-2-24,35.8,25.4,18.0,19.2,16.0,8.8,85,68,43,29.61,29.51,13,5,24,0.00
2014-2-25,30.4,22.9,19.0,22.1,18.3,-28.2,99,82,66,29.57,29.43,12,4,104,0.00
2014-2-26,25.5,15.3,9.9,16.3,8.2,-30.3,88,74,10,29.55,29.18,16,7,30,0.00
2014-2-27,37.0,14.5,4.1,13.7,4.4,-33.1,87,64,10,29.58,29.05,106,8,106,0.00
2014-2-28,33.6,17.0,0.3,9.7,1.8,-3.8,89,55,27,29.69,29.51,12,3,19,0.08
2014-3-1,53.6,35.0,23.4,33.9,21.2,8.0,99,58,37,29.59,29.48,13,5,113,0.08
2014-3-2,52.0,21.5,11.3,28.3,19.5,-26.9,99,92,10,29.67,29.56,34,5,34,0.16
2014-3-3,23.4,11.1,5.2,13.4,4.6,0.2,81,75,58,29.83,29.66,30,5,30,0.58
2014-3-4,36.1,14.6,5.2,18.3,6.6,0.2,85,71,40,29.78,29.58,9,1,11,0.00
2014-3-5,49.8,21.0,12.4,43.6,14.9,-33.5,99,79,10,29.82,29.60,35,5,58,0.08
2014-3-6,49.8,29.2,16.0,28.7,19.2,-29.1,99,70,10,29.80,29.53,7,3,13,0.00
2014-3-7,59.7,38.9,22.5,39.4,30.8,22.1,99,76,45,29.54,29.35,10,2,15,0.00
2014-3-8,52.7,35.5,29.1,40.9,33.5,28.9,99,93,59,29.56,29.35,12,3,17,0.00
2014-3-9,45.7,35.6,25.2,30.8,28.1,21.8,99,76,52,29.66,29.37,13,4,25,0.02
2014-3-10,62.1,45.8,35.8,46.3,37.9,29.1,94,75,56,29.37,29.08,17,6,27,0.02
2014-3-11,72.7,52.2,37.4,51.3,44.9,16.6,99,79,44,29.13,29.03,12,2,17,0.00
2014-3-12,46.0,30.6,18.5,41.1,28.4,15.3,99,92,75,29.38,28.75,12,2,27,0.81
2014-3-13,34.2,25.1,18.5,23.2,15.5,6.2,87,69,38,29.59,29.37,11,3,17,0.00
2014-3-14,61.9,45.0,30.4,44.8,32.7,23.0,90,64,39,29.45,29.10,27,10,41,0.08
2014-3-15,51.6,41.7,31.6,38.6,34.4,30.5,97,77,51,29.58,29.21,14,4,38,0.00
2014-3-16,31.8,24.5,13.1,30.6,17.8,8.4,96,76,56,29.69,29.49,19,9,29,0.00
2014-3-17,48.6,29.5,13.5,40.8,19.5,6.8,94,69,41,29.48,29.25,13,5,102,0.00
2014-3-18,59.4,41.2,24.3,41.1,33.0,24.0,99,76,47,29.41,29.25,13,3,22,0.00
2014-3-19,53.2,46.0,38.5,53.0,44.6,38.2,99,95,79,29.34,29.11,17,8,35,0.19
2014-3-20,48.7,37.9,30.4,38.0,32.6,28.3,99,82,60,29.47,29.34,15,5,27,0.00
2014-3-21,61.9,44.3,26.1,42.5,34.8,25.8,99,73,45,29.48,29.18,14,3,23,0.00
2014-3-22,54.9,42.8,36.1,42.3,35.6,30.8,96,77,51,29.59,29.13,17,6,25,0.00
2014-3-23,39.0,28.8,19.9,30.9,17.9,9.7,91,64,43,29.73,29.58,21,8,72,0.00
2014-3-24,38.5,26.6,15.6,19.8,14.9,10.6,98,65,34,29.73,29.51,11,2,17,0.00
2014-3-25,39.0,26.9,18.9,29.0,19.8,13.0,99,76,47,29.55,29.34,25,5,30,0.00
2014-3-26,37.9,26.3,11.8,18.0,12.7,7.4,92,59,31,29.76,29.55,17,4,54,0.00
2014-3-27,51.3,38.6,27.1,40.1,24.2,16.6,83,57,39,29.63,29.18,20,7,27,0.12
2014-3-28,56.3,48.4,41.0,52.9,44.0,35.4,99,85,57,29.57,29.12,24,9,41,0.12
2014-3-29,41.2,35.8,19.6,40.1,34.9,-13.7,99,97,10,29.56,29.33,20,9,72,0.21
2014-3-30,52.3,37.9,27.5,36.2,29.7,-16.6,99,76,10,29.59,29.47,36,7,62,0.04
2014-3-31,64.6,47.9,27.5,42.7,33.1,7.4,99,63,27,29.63,29.41,12,2,17,0.00
2014-4-1,73.8,56.1,47.7,45.4,36.7,31.9,72,50,24,29.47,29.25,24,7,40,0.06
2014-4-2,67.1,52.3,41.9,49.7,43.6,37.2,99,74,46,29.57,29.46,8,2,14,0.19
2014-4-3,49.1,44.3,41.4,48.8,41.0,21.0,99,90,56,29.51,29.15,12,3,20,2.13
2014-4-4,65.5,51.2,38.1,54.7,23.9,-39.7,99,51,10,29.31,28.88,20,8,40,0.72
2014-4-5,50.9,40.1,33.4,36.3,32.4,28.1,99,75,47,29.61,29.30,17,6,34,0.00
2014-4-6,59.9,45.7,27.9,47.9,31.7,25.8,99,64,30,29.62,29.38,11,2,15,0.00
2014-4-7,55.0,46.8,40.1,50.3,42.4,30.5,99,86,54,29.39,28.79,11,3,17,0.83
2014-4-8,62.8,50.5,41.0,46.5,42.8,37.6,99,77,48,29.21,28.80,15,6,24,0.27
2014-4-9,61.2,50.2,39.2,46.0,39.1,32.3,99,70,37,29.44,29.20,14,4,20,0.00
2014-4-10,72.1,56.3,42.1,57.1,42.7,4.6,99,63,10,29.42,29.20,27,8,40,0.43
2014-4-11,68.0,55.8,45.1,56.4,48.6,-5.8,99,80,10,29.50,29.35,12,2,20,0.91
2014-4-12,75.6,60.8,44.2,57.6,50.3,41.8,99,72,35,29.56,29.30,19,6,29,0.00
2014-4-13,79.3,69.6,60.3,61.6,56.6,49.5,86,65,46,29.32,29.15,21,8,34,0.00
2014-4-14,70.2,61.9,1.4,64.1,55.8,1.3,99,82,52,29.17,29.01,25,11,40,0.87
2014-4-15,41.4,32.0,27.9,41.1,27.3,-19.4,99,83,63,29.66,29.13,20,7,67,0.29
2014-4-16,47.8,36.4,21.0,30.0,23.8,17.7,99,63,42,29.85,29.65,11,3,19,0.00
2014-4-17,67.8,51.0,35.1,41.1,32.8,23.9,73,52,31,29.76,29.66,17,5,27,0.00
2014-4-18,74.3,57.0,-6.7,48.1,42.2,-25.9,99,62,10,29.70,29.61,8,2,11,0.00
2014-4-19,62.2,50.5,37.4,48.1,39.4,28.4,99,70,31,29.79,29.65,14,5,62,0.00
2014-4-20,75.2,56.9,34.5,49.7,39.9,34.3,99,60,27,29.70,29.52,12,2,17,0.00
2014-4-21,81.3,63.4,43.9,56.5,47.5,39.1,99,63,24,29.52,29.24,16,3,24,0.00
2014-4-22,70.2,59.2,43.3,61.1,49.8,35.6,99,74,37,29.34,29.14,19,7,30,0.02
2014-4-23,56.3,45.4,35.2,38.4,35.1,31.3,89,69,48,29.53,29.34,13,5,54,0.00
2014-4-24,66.4,51.5,21.0,34.9,26.5,-29.4,74,43,16,29.57,29.24,11,4,17,0.00
2014-4-25,58.5,52.6,46.2,57.3,43.0,16.1,99,74,36,29.30,29.06,15,5,25,0.37
2014-4-26,72.0,57.3,43.3,51.8,45.1,38.2,98,67,40,29.45,29.24,15,6,24,0.00
2014-4-27,67.5,50.6,35.8,44.6,39.2,18.1,99,69,32,29.55,29.37,12,5,22,0.00
2014-4-28,53.8,48.6,-18.4,53.0,44.5,-58.0,99,87,10,29.37,29.12,14,3,75,1.63
2014-4-29,75.7,64.1,-9.6,62.5,34.1,-17.7,99,44,10,29.34,28.96,23,8,31,1.01
2014-4-30,68.9,58.3,53.4,59.5,53.0,48.3,95,83,63,29.30,29.14,11,4,17,0.21
2014-5-1,59.4,52.4,44.8,49.8,42.8,39.2,91,71,54,29.28,29.23,32,6,72,0.00
2014-5-2,58.6,51.3,45.9,47.3,44.6,40.9,89,78,63,29.29,29.24,14,5,20,0.03
2014-5-3,68.5,56.4,47.5,49.8,45.2,39.6,91,69,39,29.29,29.16,17,6,30,0.00
2014-5-4,68.7,57.6,45.9,47.2,39.0,27.6,77,52,28,29.49,29.25,19,6,33,0.00
2014-5-5,60.1,49.7,43.0,44.7,39.1,34.8,93,68,45,29.49,29.32,13,3,21,0.00
2014-5-6,69.6,56.3,41.2,45.2,41.3,35.8,99,61,32,29.45,29.35,11,4,17,0.00
2014-5-7,84.6,68.7,52.5,60.4,50.9,42.2,70,55,37,29.44,29.32,17,4,27,0.00
2014-5-8,86.5,75.9,64.8,66.9,61.7,57.5,79,62,43,29.47,29.35,18,6,29,0.00
2014-5-9,77.9,70.9,64.9,67.9,61.7,56.5,99,73,55,29.42,29.23,24,8,39,0.00
2014-5-10,75.4,65.3,58.3,66.1,55.3,44.6,99,73,40,29.43,29.29,8,2,15,0.00
2014-5-11,79.9,65.0,55.0,69.0,62.1,54.8,99,91,62,29.53,29.41,17,3,33,0.41
2014-5-12,86.0,72.9,62.4,74.6,68.5,62.2,99,87,62,29.48,29.39,15,5,26,1.14
2014-5-13,87.3,77.2,68.4,72.4,69.6,64.1,99,80,48,29.50,29.39,21,6,29,0.00
2014-5-14,73.2,64.5,59.0,70.0,64.1,58.7,99,99,88,29.52,29.30,9,3,15,0.85
2014-5-15,65.1,56.8,41.7,64.9,55.6,0.1,99,96,82,29.46,29.15,16,5,23,1.20
2014-5-16,62.6,49.0,36.7,48.7,40.7,35.3,99,77,42,29.46,29.37,10,2,14,0.02
2014-5-17,59.2,49.5,29.1,49.9,43.5,-20.6,99,82,10,29.64,29.41,27,2,100,0.08
2014-5-18,69.6,53.1,36.9,48.9,38.5,30.9,99,65,26,29.72,29.64,8,1,11,0.00
2014-5-19,72.7,58.9,39.4,57.8,41.8,33.2,99,61,26,29.73,29.55,10,2,17,0.00
2014-5-20,79.0,67.5,58.6,67.6,54.5,42.8,96,64,42,29.59,29.35,15,5,30,0.00
2014-5-21,81.5,69.5,62.4,74.7,67.7,62.2,99,94,75,29.41,29.25,20,4,30,0.43
2014-5-22,77.0,69.3,59.4,69.5,60.5,52.2,99,76,49,29.47,29.28,14,4,21,0.00
2014-5-23,71.8,62.1,50.7,57.6,51.1,46.7,99,70,46,29.56,29.44,13,3,24,0.00
2014-5-24,81.1,65.7,47.7,62.8,52.4,47.4,99,67,34,29.64,29.53,8,1,13,0.00
2014-5-25,86.4,70.4,52.2,64.0,53.8,47.9,99,61,30,29.61,29.49,10,1,15,0.00
2014-5-26,88.0,74.1,56.3,69.0,60.6,53.7,99,66,36,29.55,29.39,12,3,20,0.00
2014-5-27,89.8,77.8,67.8,71.8,68.2,63.9,99,75,46,29.42,29.30,11,2,17,0.00
2014-5-28,91.2,73.0,62.1,73.8,67.9,61.8,99,87,47,29.47,29.33,13,2,16,0.25
2014-5-29,82.8,69.0,59.5,68.1,62.6,56.5,99,82,57,29.54,29.43,12,3,18,0.00
2014-5-30,83.1,68.9,51.6,61.9,57.4,51.4,99,71,40,29.59,29.51,12,2,17,0.00
2014-5-31,87.3,72.9,54.9,66.3,57.7,50.8,99,64,36,29.64,29.53,9,2,17,0.33
2014-6-1,88.7,75.1,56.5,66.9,59.4,52.3,99,63,31,29.59,29.42,11,2,17,0.00
2014-6-2,83.1,76.1,70.7,74.1,71.6,67.2,99,87,66,29.51,29.36,19,8,30,0.21
2014-6-3,88.0,77.0,64.8,75.7,66.1,55.0,99,73,38,29.38,29.29,14,5,22,0.21
2014-6-4,73.2,62.7,55.2,66.7,60.0,55.0,99,92,67,29.36,29.13,12,3,20,1.55
2014-6-5,73.8,64.4,55.2,62.5,54.9,47.8,99,75,41,29.38,29.21,10,3,110,0.02
2014-6-6,83.1,68.0,50.0,63.4,51.2,43.8,99,63,27,29.45,29.37,8,1,12,0.00
2014-6-7,85.5,71.8,53.4,63.5,55.5,51.1,99,61,32,29.49,29.30,8,1,11,0.00
2014-6-8,71.6,64.8,56.7,65.6,59.7,53.1,99,85,62,29.38,29.16,13,4,21,0.99
2014-6-9,78.3,64.2,-20.0,67.0,58.0,-59.3,99,83,10,29.43,29.33,10,2,102,0.00
2014-6-10,75.2,65.5,55.9,71.0,64.2,55.5,99,96,75,29.37,29.24,8,2,13,0.27
2014-6-11,77.7,70.2,65.1,75.5,69.4,64.9,99,97,82,29.26,29.15,14,4,21,0.12
2014-6-12,76.3,69.8,64.0,71.6,66.9,63.8,99,91,75,29.26,29.17,14,4,21,0.00
2014-6-13,75.9,67.5,57.4,67.2,60.4,50.9,99,80,50,29.45,29.20,13,3,21,0.04
2014-6-14,79.3,64.8,46.4,62.3,50.6,46.1,99,65,33,29.57,29.45,11,2,17,0.00
2014-6-15,85.3,71.8,54.3,66.7,57.2,48.4,88,62,38,29.56,29.41,12,3,17,0.00
2014-6-16,91.4,78.7,69.4,79.1,72.4,66.4,99,82,55,29.53,29.45,15,3,27,0.06
2014-6-17,91.6,80.5,69.8,76.6,73.0,69.5,99,80,55,29.50,29.33,24,7,37,0.00
2014-6-18,91.6,79.0,68.2,78.0,73.4,67.9,99,85,55,29.51,29.37,19,4,27,0.70
2014-6-19,84.9,75.2,67.3,75.7,71.0,67.0,99,87,67,29.51,29.39,11,4,15,0.66
2014-6-20,84.6,73.5,65.7,79.4,72.1,65.4,99,96,75,29.51,29.32,6,1,9,1.53
2014-6-21,79.3,70.1,63.5,71.0,67.7,63.2,99,93,71,29.40,29.29,9,3,13,0.00
2014-6-22,87.3,73.5,63.7,67.9,64.8,59.3,99,77,46,29.40,29.31,7,1,10,0.02
2014-6-23,90.5,76.3,68.0,75.7,71.5,66.5,99,86,53,29.39,29.31,21,4,35,0.37
2014-6-24,88.0,75.7,68.7,76.6,72.1,68.5,99,90,63,29.39,29.28,14,4,25,0.68
2014-6-25,86.7,74.5,68.5,76.3,71.7,68.3,99,92,64,29.41,29.28,13,2,24,0.37
2014-6-26,89.8,76.0,64.4,76.2,68.6,64.1,99,80,48,29.48,29.40,8,1,13,0.00
2014-6-27,92.5,77.9,63.1,72.1,67.4,62.1,99,74,40,29.53,29.47,5,1,10,0.00
2014-6-28,95.2,78.8,66.6,77.9,71.6,65.5,99,81,43,29.56,29.48,11,2,18,0.21
2014-6-29,87.1,78.4,70.7,78.4,74.5,70.4,99,89,64,29.53,29.42,16,5,25,0.00
2014-6-30,88.2,78.7,70.0,78.7,74.6,69.7,99,88,68,29.44,29.24,17,5,27,0.00
2014-7-1,90.5,80.9,67.5,77.9,74.6,67.2,99,82,62,29.28,29.14,14,5,26,0.04
2014-7-2,86.0,76.5,69.1,73.9,69.4,64.4,99,80,58,29.39,29.23,13,3,21,0.06
2014-7-3,78.4,67.8,55.9,66.2,61.9,53.4,99,82,57,29.55,29.36,14,2,23,0.00
2014-7-4,78.8,66.4,51.4,64.0,54.2,46.5,99,70,35,29.72,29.55,11,2,19,0.00
2014-7-5,83.7,68.0,50.9,62.0,52.1,43.6,99,63,27,29.74,29.55,13,2,17,0.00
2014-7-6,79.5,69.4,59.5,67.6,62.1,55.3,98,79,60,29.55,29.31,14,4,22,0.41
2014-7-7,84.6,75.8,70.5,76.1,70.3,63.3,99,83,72,29.31,29.19,15,7,27,0.00
2014-7-8,84.0,74.6,69.8,73.9,70.2,65.3,99,88,59,29.25,29.07,17,5,30,0.43
2014-7-9,85.1,73.4,63.1,73.7,66.3,59.5,99,81,44,29.44,29.24,12,2,27,0.14
2014-7-10,85.1,71.5,21.0,69.5,62.1,20.6,99,76,35,29.58,29.43,9,2,101,0.00
2014-7-11,88.2,73.7,56.7,67.5,61.0,56.3,99,70,36,29.65,29.56,8,1,11,0.00
2014-7-12,92.1,77.3,65.3,74.4,68.2,63.4,99,76,43,29.61,29.42,11,3,18,0.00
2014-7-13,90.0,80.3,71.4,78.3,74.4,70.8,99,84,59,29.43,29.30,11,4,22,0.00
2014-7-14,89.4,74.8,66.9,76.8,69.8,65.3,99,87,49,29.33,29.20,14,2,27,0.17
2014-7-15,79.0,69.3,58.3,67.8,60.5,52.7,99,76,45,29.34,29.19,14,3,24,0.00
2014-7-16,74.5,63.3,51.8,59.9,55.4,51.5,99,78,50,29.44,29.33,9,2,21,0.00
2014-7-17,81.9,67.4,51.1,64.3,55.8,50.4,99,71,36,29.57,29.43,9,1,13,0.00
2014-7-18,83.5,69.4,57.6,67.2,59.1,53.3,99,73,38,29.63,29.54,11,2,17,0.00
2014-7-19,76.3,67.4,62.8,70.7,66.0,62.5,99,95,77,29.55,29.45,8,2,12,0.56
2014-7-20,88.9,72.9,60.8,72.2,65.7,60.5,99,81,46,29.51,29.44,5,1,10,0.00
2014-7-21,93.7,77.8,62.4,76.1,68.7,62.2,99,77,42,29.56,29.47,7,1,9,0.00
2014-7-22,90.7,79.4,65.3,76.0,71.7,65.0,99,80,54,29.56,29.42,11,2,17,0.00
2014-7-23,84.9,71.7,59.2,75.0,70.0,58.9,99,95,67,29.47,29.35,11,3,21,0.68
2014-7-24,76.1,65.0,53.8,65.0,57.3,53.5,99,79,51,29.50,29.44,12,4,23,0.00
2014-7-25,81.1,67.1,49.5,66.3,57.3,49.2,99,75,42,29.56,29.40,10,2,15,0.00
2014-7-26,82.8,72.6,62.6,76.0,69.3,62.3,99,90,63,29.42,29.24,14,4,23,0.79
2014-7-27,84.0,72.2,65.3,77.5,71.3,1.0,99,97,35,29.26,29.06,17,3,109,1.53
2014-7-28,75.6,66.8,61.5,68.1,62.1,57.3,99,86,56,29.39,29.13,12,4,20,0.02
2014-7-29,75.4,64.6,53.4,62.9,57.1,47.2,99,79,48,29.47,29.38,7,2,11,0.02
2014-7-30,81.3,67.7,55.9,68.1,62.2,55.7,99,85,52,29.46,29.40,10,2,14,0.00
2014-7-31,85.3,72.1,60.1,69.9,64.3,59.8,99,80,48,29.51,29.43,10,2,16,0.12
2014-8-1,91.9,73.8,58.3,73.9,64.2,58.0,99,76,38,29.55,29.47,6,1,9,0.00
2014-8-2,81.1,68.9,61.3,69.4,65.2,-53.1,99,89,62,29.56,29.47,8,2,16,0.66
2014-8-3,88.7,73.3,59.9,73.1,65.8,59.6,99,80,50,29.56,29.48,8,1,11,0.00
2014-8-4,91.9,74.7,59.0,72.0,66.3,4.0,99,79,44,29.56,29.47,8,1,11,0.00
2014-8-5,90.9,74.5,64.6,74.6,69.3,64.3,99,86,52,29.50,29.42,10,1,51,0.37
2014-8-6,85.5,72.4,62.6,74.3,66.5,60.1,99,83,59,29.48,29.39,11,2,17,0.02
2014-8-7,86.9,70.7,54.7,70.1,60.0,30.7,99,73,34,29.54,29.47,24,1,14,0.00
2014-8-8,86.2,72.5,60.6,66.3,61.7,58.6,99,73,41,29.55,29.46,10,2,14,0.00
2014-8-9,88.3,73.0,57.2,68.9,64.2,56.9,99,77,47,29.51,29.43,8,2,100,0.00
2014-8-10,89.8,76.2,61.9,72.1,68.1,61.4,99,78,51,29.48,29.38,11,2,14,0.00
2014-8-11,84.4,73.2,69.1,79.8,72.5,68.8,99,97,79,29.40,29.17,21,3,36,0.52
2014-8-12,80.6,69.9,62.6,75.1,67.8,62.3,99,94,65,29.30,29.16,15,4,27,0.41
2014-8-13,79.3,68.2,59.0,64.1,60.8,56.7,99,80,52,29.43,29.30,11,4,18,0.00
2014-8-14,75.9,65.3,53.4,63.4,56.6,49.3,99,76,48,29.47,29.38,13,3,20,0.00
2014-8-15,77.7,63.5,46.9,61.3,52.0,46.0,99,72,34,29.50,29.42,8,1,14,0.00
2014-8-16,83.7,64.6,49.5,71.3,60.1,49.2,99,88,46,29.44,29.35,12,3,22,0.00
2014-8-17,90.9,76.0,66.9,75.2,69.8,66.7,99,83,49,29.41,29.33,11,2,14,0.00
2014-8-18,91.8,74.9,64.6,75.6,70.1,64.3,99,86,53,29.36,29.23,9,2,14,0.00
2014-8-19,88.9,75.5,62.1,76.0,69.9,61.8,99,84,61,29.29,29.20,11,2,16,0.00
2014-8-20,90.0,76.9,66.6,75.9,71.3,66.3,99,85,56,29.42,29.22,12,2,18,0.68
2014-8-21,79.2,72.0,68.0,76.9,71.5,67.7,99,98,89,29.50,29.40,11,2,19,0.68
2014-8-22,89.6,76.3,67.3,83.1,74.1,67.0,99,94,68,29.43,29.36,11,2,17,0.33
2014-8-23,93.4,77.1,66.2,77.8,72.2,65.9,99,87,56,29.45,29.39,10,2,13,0.00
2014-8-24,88.9,74.0,62.2,75.8,69.8,62.0,99,88,59,29.50,29.42,5,1,8,0.00
2014-8-25,89.8,78.0,67.3,77.6,73.6,67.0,99,88,63,29.53,29.46,7,2,10,0.06
2014-8-26,92.1,78.4,68.4,79.0,73.8,68.1,99,87,57,29.57,29.46,11,2,15,0.00
2014-8-27,92.3,76.1,67.5,78.4,72.0,67.2,99,89,60,29.52,29.44,8,2,13,0.00
2014-8-28,114.8,70.5,59.7,92.3,62.6,13.4,99,80,10,29.56,29.49,7,1,97,0.00
2014-8-29,86.2,71.1,56.7,68.9,62.9,56.4,99,78,51,29.55,29.44,11,2,15,0.00
2014-8-30,88.9,77.0,66.6,76.5,71.5,66.1,99,85,55,29.47,29.38,16,5,24,0.00
2014-8-31,85.1,74.7,69.8,78.3,73.3,69.5,99,95,72,29.45,29.38,10,4,17,0.04
2014-9-1,86.7,76.1,68.7,79.3,74.0,68.5,99,94,73,29.41,29.27,17,6,27,0.10
2014-9-2,79.9,73.1,65.8,74.0,71.1,65.6,99,94,76,29.40,29.30,11,2,17,0.06
2014-9-3,90.1,73.9,60.6,76.8,66.3,59.6,99,81,42,29.50,29.40,8,1,13,0.00
2014-9-4,90.9,75.6,61.5,75.1,69.2,61.3,99,83,52,29.54,29.44,11,2,17,0.00
2014-9-5,93.2,80.0,70.0,79.4,75.5,18.0,99,88,10,29.54,29.36,14,6,20,0.00
2014-9-6,78.1,68.6,56.8,77.8,66.6,56.6,99,94,68,29.56,29.39,11,2,27,0.04
2014-9-7,84.4,66.5,50.9,69.7,56.9,50.6,99,76,38,29.63,29.54,6,1,13,0.02
2014-9-8,85.6,69.4,52.7,67.4,61.0,52.4,99,78,38,29.59,29.45,8,2,14,0.00
2014-9-9,83.7,71.1,62.2,72.3,64.3,58.5,99,82,43,29.51,29.40,9,2,13,0.00
2014-9-10,80.1,72.3,61.9,78.3,71.1,61.6,99,96,84,29.42,29.11,19,7,36,0.17
2014-9-11,73.8,64.1,58.6,73.5,61.9,57.9,99,93,73,29.57,29.13,13,5,21,0.66
2014-9-12,66.7,58.4,-3.1,59.1,55.5,-3.2,99,91,39,29.65,29.57,98,4,98,0.00
2014-10-12,76.1,67.3,54.1,72.4,65.3,53.9,99,94,68,29.56,29.39,9,2,13,0.00
2014-10-13,84.9,66.8,50.9,69.7,57.2,50.6,99,75,38,29.64,29.54,8,1,13,0.02
2014-10-14,85.6,69.7,52.7,67.3,61.4,52.4,99,78,38,29.58,29.45,8,2,14,0.00
2014-10-15,83.7,71.2,62.2,72.1,64.1,58.8,99,81,43,29.51,29.39,9,2,12,0.00
2014-10-16,79.9,72.9,61.9,78.1,72.0,61.6,99,97,90,29.39,29.11,22,8,36,0.54
2014-10-17,73.0,62.3,-3.1,72.7,60.1,-3.3,99,93,73,29.59,29.13,12,4,17,0.29
2014-10-18,66.7,54.3,45.5,59.0,52.1,41.0,99,93,39,29.65,29.38,98,2,98,0.02
2014-10-19,59.0,48.2,34.3,58.7,47.9,34.1,99,99,99,29.62,29.44,1,0,2,0.00
2014-10-20,106.3,51.8,45.5,62.2,51.1,38.5,99,98,10,29.44,29.24,2,0,3,0.23
2014-10-21,50.0,47.1,42.8,49.7,46.8,42.5,99,99,99,29.57,29.28,2,1,4,0.02
2014-10-22,50.2,45.6,41.9,49.9,45.4,41.6,99,99,99,29.70,29.56,2,0,3,0.00
2014-10-23,66.4,46.8,34.9,66.1,46.6,34.6,99,99,99,29.67,29.51,1,0,2,0.00
2014-10-24,74.7,51.6,34.2,74.4,51.3,33.9,99,99,99,29.53,29.40,1,0,2,0.00
2014-10-25,77.9,59.6,46.6,77.7,59.3,46.3,99,99,99,29.42,29.22,2,0,4,0.00
2014-10-26,71.1,53.8,39.4,70.8,53.6,39.1,99,99,99,29.41,29.28,2,0,2,0.00
2014-10-27,81.9,59.1,36.9,75.1,53.5,36.6,99,85,48,29.39,29.20,21,4,32,0.00
2014-10-28,70.2,62.1,48.2,66.5,58.5,46.3,99,88,69,29.39,29.24,19,6,27,0.12
2014-10-29,59.5,48.3,41.5,46.9,41.1,-1.8,99,78,10,29.51,29.39,13,4,112,0.00
2014-10-30,58.8,45.6,34.3,45.6,38.8,34.1,99,79,51,29.56,29.44,7,1,12,0.00
2014-10-31,46.0,41.7,34.3,44.5,40.1,34.1,99,94,84,29.44,29.26,20,5,28,0.43
2014-11-1,40.1,36.0,30.6,36.5,32.8,-15.3,99,89,10,29.73,29.38,21,11,30,0.12
2014-11-2,39.2,30.5,29.3,27.6,26.7,-18.5,92,86,55,29.84,29.71,5,4,10,0.00
2014-11-3,66.4,47.5,25.2,32.2,23.7,-23.7,84,45,10,29.74,29.54,187,6,187,0.33
2014-11-4,98.2,53.7,44.8,98.1,41.5,29.5,99,66,37,29.56,29.39,23,8,57,0.10
2014-11-5,63.3,47.2,38.1,47.4,42.0,-12.6,99,85,10,29.62,29.42,11,2,15,0.00
2014-11-6,49.5,45.4,40.1,48.3,44.9,23.0,99,99,35,29.43,29.16,19,4,101,0.58
2014-11-7,48.2,38.6,30.2,41.5,32.7,27.6,99,81,49,29.55,29.37,17,6,25,0.00
2014-11-8,54.5,40.1,23.4,47.8,37.1,21.9,99,90,65,29.41,29.19,15,4,87,0.00
2014-11-9,52.0,43.7,32.9,40.9,35.2,-8.1,99,75,44,29.41,29.30,15,0,23,0.00
2014-11-10,65.7,52.2,-4.2,38.5,35.9,-20.8,84,57,26,29.40,29.21,15,1,25,0.00
2014-11-11,67.5,53.4,38.7,57.3,44.3,35.2,99,73,51,29.38,29.15,0,0,1,0.02
2014-11-12,39.0,34.9,30.6,38.8,29.5,24.6,99,81,70,29.65,29.38,0,0,0,0.00
2014-11-13,33.6,28.8,22.6,27.3,24.7,19.6,95,85,64,29.65,29.57,0,0,0,0.00
2014-11-14,38.1,26.7,18.3,27.5,20.7,18.1,99,79,56,29.76,29.63,0,0,0,0.00
2014-11-15,38.5,26.9,14.5,23.3,19.2,14.4,99,75,46,29.83,29.62,0,0,0,0.00
2014-11-16,34.5,31.3,27.1,33.4,29.0,22.7,99,91,78,29.64,29.28,0,0,0,0.00
2014-11-17,33.8,25.1,13.8,33.2,22.8,9.6,99,91,57,29.38,29.13,24,3,27,0.00
2014-11-18,47.5,15.3,7.9,21.2,9.1,-29.0,91,77,10,29.62,29.37,36,5,36,0.00
2014-11-19,35.4,23.5,12.2,30.2,19.0,-22.1,99,83,10,29.62,29.22,21,6,33,0.00
2014-11-20,34.7,25.3,19.2,27.9,16.7,-24.8,86,71,10,29.61,29.40,24,1,52,0.00
2014-11-21,45.5,22.2,9.3,42.2,12.9,-18.3,91,70,10,29.91,29.61,91,1,91,0.00
2014-11-22,49.6,34.4,17.2,43.6,24.7,-27.7,99,75,10,29.77,29.44,113,13,113,0.06
2014-11-23,63.3,50.9,0.3,55.3,42.5,-43.1,99,76,10,29.46,28.69,24,0,55,0.45
2014-11-24,61.3,50.8,36.1,59.8,47.7,-44.6,99,89,72,29.26,28.64,36,13,66,0.58
2014-11-25,37.6,33.8,21.0,34.0,29.7,-16.8,99,85,10,29.61,29.26,100,7,103,0.16
2014-11-26,32.7,28.4,15.1,31.8,27.2,9.8,99,95,79,29.60,29.45,122,5,122,0.00
2014-11-27,42.3,31.7,26.8,38.9,25.4,-22.4,99,80,10,29.72,29.46,31,6,25,0.00
2014-11-28,49.5,28.2,20.5,39.8,22.9,-25.5,99,83,10,29.77,29.49,122,10,122,0.00
2014-11-29,52.0,41.4,31.3,49.7,33.1,22.7,93,72,54,29.50,29.23,19,8,30,0.00
2014-11-30,61.2,56.6,51.3,58.6,55.1,49.0,99,94,89,29.48,29.25,19,8,30,0.17
2014-12-1,52.9,35.6,27.0,52.4,30.1,-21.1,99,83,10,29.96,29.48,127,10,127,2.66
2014-12-2,39.4,28.7,13.8,37.5,26.5,-24.4,99,93,10,29.94,29.52,11,3,54,0.00
2014-12-3,50.2,34.4,23.4,34.3,30.2,-19.9,99,86,10,29.76,29.49,14,5,27,0.00
2014-12-4,82.2,29.8,21.0,71.5,26.1,-16.0,99,88,10,29.83,29.71,36,1,103,0.75
2014-12-5,51.8,37.7,23.5,43.1,33.7,-24.9,99,90,10,29.71,29.52,99,7,103,0.54
2014-12-6,42.6,37.1,27.5,40.2,27.2,-15.1,99,80,10,29.95,29.50,105,12,105,0.21
2014-12-7,43.9,33.8,29.5,29.6,28.5,24.8,99,82,48,30.04,29.80,11,4,14,0.00
2014-12-8,45.3,39.6,35.8,36.1,29.7,23.2,73,68,44,29.79,29.47,16,5,24,0.00
2014-12-9,42.3,37.6,32.9,42.0,36.1,-15.7,99,95,34,29.61,29.45,24,5,103,0.04
2014-12-10,36.3,30.0,8.1,35.6,28.1,-37.0,99,94,10,29.65,29.53,16,7,61,0.00
2014-12-11,40.6,28.1,19.0,30.4,23.6,-19.2,99,85,10,29.58,29.49,17,4,20,0.00
2014-12-12,47.8,30.7,21.7,32.6,27.5,21.5,99,90,54,29.68,29.57,8,2,14,0.00
2014-12-13,44.2,37.0,14.4,44.0,36.6,14.2,99,98,35,29.66,29.50,53,4,53,0.00
2014-12-14,50.4,42.4,20.7,50.1,38.8,-27.2,99,93,10,29.55,29.49,8,2,100,1.28
2014-12-15,55.8,44.0,18.1,51.8,38.0,-18.3,99,84,10,29.52,29.22,146,3,51,0.06
2014-12-16,50.2,43.9,36.3,49.7,43.6,-10.0,99,99,10,29.42,29.10,14,4,28,0.33
2014-12-17,37.8,30.6,26.1,36.1,29.4,-22.8,99,96,10,29.63,29.42,14,5,110,0.00
2014-12-18,37.6,27.6,26.2,34.6,25.4,-22.7,99,92,10,29.67,29.59,24,0,2,0.33
2014-12-19,29.8,28.1,26.8,29.2,27.1,-22.1,99,89,10,29.72,29.60,123,5,123,0.00
2014-12-20,36.0,28.9,27.9,33.1,26.9,-2.2,99,92,85,29.70,29.64,0,0,0,0.00
2014-12-21,45.9,30.4,20.3,31.4,26.3,-16.2,99,86,52,29.73,29.55,24,0,0,0.00
2014-12-22,49.8,35.0,-22.0,40.6,31.8,-22.4,99,90,10,29.56,29.17,13,0,49,0.00
2014-12-23,53.4,48.8,43.0,53.2,48.4,40.6,99,98,86,29.25,29.11,11,4,17,0.02
2014-12-24,56.1,50.8,24.3,55.9,50.2,-24.4,99,98,10,29.12,28.69,22,6,66,0.35
2014-12-25,43.0,37.2,33.3,42.7,35.3,-15.5,99,94,10,29.59,29.06,13,4,103,0.06
2014-12-26,50.5,38.6,20.5,43.2,36.2,-18.3,99,93,10,29.62,29.54,97,1,97,0.00
2014-12-27,52.2,45.4,36.1,49.4,42.6,-25.8,99,90,70,29.59,29.42,11,3,49,0.48
2014-12-28,40.6,34.8,26.8,40.4,33.6,5.3,99,96,35,29.61,29.40,30,4,30,0.23
2014-12-29,58.1,28.9,19.0,46.8,23.8,-23.2,99,84,10,29.79,29.60,99,3,102,0.04
2014-12-30,45.5,23.0,17.4,33.4,17.5,-25.6,99,82,10,29.93,29.78,24,0,49,0.17
2014-12-31,50.5,20.0,11.3,48.3,7.9,-27.9,93,66,10,29.91,29.61,6,0,3,0.33
2015-1-1,48.0,26.6,15.3,44.9,16.1,-29.7,89,66,10,29.62,29.41,28,6,117,0.41
2015-1-2,43.2,32.1,22.1,41.1,23.8,-19.7,97,75,10,29.75,29.56,11,3,49,0.00